Time;durP1;ratioP1;P1;durP2;ratioP2;P2;SDS_P1;SDS_P2;PMS_P1;PMS_P2;Temp;Humidity;BMP_temperature;BMP_pressure;BME280_temperature;BME280_humidity;BME280_pressure;Samples;Min_cycle;Max_cycle;Signal;HPM_P1;HPM_P2
2022/10/15 00:01:20;;;;;;;29.92;12.95;;;;;;;;;;4986993;28;20018;-66
2022/10/15 00:03:45;;;;;;;28.55;12.63;;;;;;;;;;4992049;28;20023;-67
2022/10/15 00:06:15;;;;;;;33.80;12.77;;;;;;;;;;4990520;28;20029;-66
2022/10/15 00:08:41;;;;;;;24.33;11.82;;;;;;;;;;5000357;28;20643;-66
2022/10/15 00:11:08;;;;;;;23.08;10.93;;;;;;;;;;4990788;28;20065;-66
2022/10/15 00:13:33;;;;;;;31.15;12.30;;;;;;;;;;4986337;28;20022;-66
2022/10/15 00:15:59;;;;;;;26.25;11.20;;;;;;;;;;4984844;28;20019;-64
2022/10/15 00:18:24;;;;;;;24.13;11.60;;;;;;;;;;4989930;28;20018;-65
2022/10/15 00:20:49;;;;;;;19.73;10.45;;;;;;;;;;4991873;28;20033;-64
2022/10/15 00:23:15;;;;;;;22.75;11.32;;;;;;;;;;4985051;28;20033;-67
2022/10/15 00:25:41;;;;;;;21.42;11.55;;;;;;;;;;4984424;28;20026;-64
2022/10/15 00:28:06;;;;;;;25.10;11.85;;;;;;;;;;4991310;28;20536;-65
2022/10/15 00:30:31;;;;;;;21.40;11.43;;;;;;;;;;4992638;28;20026;-65
2022/10/15 00:32:57;;;;;;;17.25;10.45;;;;;;;;;;4997168;28;20091;-66
2022/10/15 00:35:22;;;;;;;21.83;10.27;;;;;;;;;;4979423;28;20112;-66
2022/10/15 00:37:47;;;;;;;19.20;9.88;;;;;;;;;;4982699;28;20037;-64
2022/10/15 00:40:14;;;;;;;17.95;10.57;;;;;;;;;;4991825;28;20022;-66
2022/10/15 00:42:39;;;;;;;25.08;10.40;;;;;;;;;;4985990;28;20014;-64
2022/10/15 00:45:04;;;;;;;19.25;11.15;;;;;;;;;;4985218;28;20026;-66
2022/10/15 00:47:30;;;;;;;22.15;9.38;;;;;;;;;;4998114;28;20541;-64
2022/10/15 00:50:18;;;;;;;21.88;9.50;;;;;;;;;;4967115;28;20026;-67
2022/10/15 00:52:58;;;;;;;21.38;9.57;;;;;;;;;;4971860;28;20061;-66
2022/10/15 00:55:27;;;;;;;17.55;9.32;;;;;;;;;;4984753;28;20026;-66
2022/10/15 00:57:52;;;;;;;16.02;8.23;;;;;;;;;;4986629;28;20027;-65
2022/10/15 01:00:18;;;;;;;21.20;9.23;;;;;;;;;;4992572;28;20073;-66
2022/10/15 01:02:43;;;;;;;18.95;8.98;;;;;;;;;;4968690;28;20026;-65
2022/10/15 01:05:09;;;;;;;19.05;8.25;;;;;;;;;;4985269;28;20058;-65
2022/10/15 01:07:34;;;;;;;16.83;9.40;;;;;;;;;;5005777;28;20033;-66
2022/10/15 01:10:00;;;;;;;18.17;8.60;;;;;;;;;;4986121;28;20029;-66
2022/10/15 01:12:25;;;;;;;17.83;8.68;;;;;;;;;;4997524;28;20112;-66
2022/10/15 01:14:55;;;;;;;20.38;8.23;;;;;;;;;;4978501;28;20029;-66
2022/10/15 01:17:25;;;;;;;17.85;9.90;;;;;;;;;;4996154;28;20274;-66
2022/10/15 01:20:19;;;;;;;14.40;7.95;;;;;;;;;;4962331;28;20073;-66
2022/10/15 01:22:53;;;;;;;18.80;9.45;;;;;;;;;;4992234;28;20362;-67
2022/10/15 01:25:24;;;;;;;14.73;9.10;;;;;;;;;;4989035;28;20032;-65
2022/10/15 01:28:00;;;;;;;18.17;8.95;;;;;;;;;;4980956;28;20114;-68
2022/10/15 01:30:29;;;;;;;19.40;9.48;;;;;;;;;;4987377;28;20034;-65
2022/10/15 01:33:06;;;;;;;15.02;8.18;;;;;;;;;;4987057;28;20045;-68
2022/10/15 01:35:43;;;;;;;14.85;8.65;;;;;;;;;;4986423;28;20022;-66
2022/10/15 01:38:20;;;;;;;16.88;8.32;;;;;;;;;;4991177;28;20095;-67
2022/10/15 01:40:55;;;;;;;17.92;8.75;;;;;;;;;;4992078;28;20044;-66
2022/10/15 01:43:23;;;;;;;18.48;8.27;;;;;;;;;;4988669;28;20022;-66
2022/10/15 01:45:51;;;;;;;17.42;7.78;;;;;;;;;;4985400;28;20030;-67
2022/10/15 01:48:17;;;;;;;14.23;7.57;;;;;;;;;;4995067;28;20542;-66
2022/10/15 01:50:45;;;;;;;12.15;6.93;;;;;;;;;;4984490;28;20252;-65
2022/10/15 01:53:12;;;;;;;14.23;6.88;;;;;;;;;;4983581;28;20464;-65
2022/10/15 01:55:40;;;;;;;11.38;6.70;;;;;;;;;;4984427;28;20018;-67
2022/10/15 01:58:06;;;;;;;14.87;7.47;;;;;;;;;;4966267;28;20015;-67
2022/10/15 02:00:32;;;;;;;13.93;6.70;;;;;;;;;;4978874;28;20037;-66
2022/10/15 02:03:00;;;;;;;15.48;7.20;;;;;;;;;;4995056;28;20078;-65
2022/10/15 02:05:28;;;;;;;11.55;7.10;;;;;;;;;;4988046;28;20023;-64
2022/10/15 02:07:54;;;;;;;19.63;7.78;;;;;;;;;;5008505;28;20033;-67
2022/10/15 02:10:31;;;;;;;13.03;6.90;;;;;;;;;;4967591;28;20029;-65
2022/10/15 02:13:01;;;;;;;18.40;7.72;;;;;;;;;;4980704;28;21017;-65
2022/10/15 02:15:26;;;;;;;11.35;5.90;;;;;;;;;;4976507;28;20038;-65
2022/10/15 02:18:08;;;;;;;13.10;6.47;;;;;;;;;;4978291;28;20417;-65
2022/10/15 02:20:40;;;;;;;12.18;5.90;;;;;;;;;;4977922;28;20029;-64
2022/10/15 02:23:23;;;;;;;14.82;6.90;;;;;;;;;;4976535;28;20106;-65
2022/10/15 02:25:49;;;;;;;11.20;6.47;;;;;;;;;;4974705;28;20101;-65
2022/10/15 02:28:16;;;;;;;14.48;6.38;;;;;;;;;;4973689;28;20425;-65
2022/10/15 02:30:42;;;;;;;15.55;6.35;;;;;;;;;;4976387;28;20385;-66
2022/10/15 02:33:08;;;;;;;13.00;6.20;;;;;;;;;;4979809;28;20445;-67
2022/10/15 02:35:33;;;;;;;11.90;5.95;;;;;;;;;;4960453;28;20094;-68
2022/10/15 02:38:01;;;;;;;15.88;6.93;;;;;;;;;;4961702;28;20018;-66
2022/10/15 02:40:27;;;;;;;12.55;6.15;;;;;;;;;;4987693;28;20543;-66
2022/10/15 02:42:53;;;;;;;15.07;6.22;;;;;;;;;;4974212;28;20026;-66
2022/10/15 02:45:18;;;;;;;11.38;6.53;;;;;;;;;;4973318;28;20037;-67
2022/10/15 02:47:43;;;;;;;14.52;6.80;;;;;;;;;;4975974;28;20054;-65
2022/10/15 02:50:09;;;;;;;16.30;6.38;;;;;;;;;;4980561;28;20026;-65
2022/10/15 02:52:34;;;;;;;14.15;6.97;;;;;;;;;;4994228;28;20514;-64
2022/10/15 02:54:59;;;;;;;10.63;6.55;;;;;;;;;;4981032;28;20420;-66
2022/10/15 02:57:24;;;;;;;14.00;6.60;;;;;;;;;;4976303;28;20132;-65
2022/10/15 02:59:50;;;;;;;12.10;6.68;;;;;;;;;;4981560;28;20249;-65
2022/10/15 03:02:15;;;;;;;12.75;5.70;;;;;;;;;;4986549;28;20026;-65
2022/10/15 03:04:40;;;;;;;14.48;6.63;;;;;;;;;;4988305;28;20030;-65
2022/10/15 03:07:05;;;;;;;11.17;6.23;;;;;;;;;;4997189;28;20018;-65
2022/10/15 03:09:30;;;;;;;11.27;5.80;;;;;;;;;;4985261;28;20327;-67
2022/10/15 03:11:55;;;;;;;15.35;6.00;;;;;;;;;;4987188;28;20046;-66
2022/10/15 03:14:21;;;;;;;10.73;6.20;;;;;;;;;;4986583;28;20027;-66
2022/10/15 03:16:46;;;;;;;10.63;6.13;;;;;;;;;;4979422;28;20300;-66
2022/10/15 03:19:11;;;;;;;13.43;5.97;;;;;;;;;;4990572;28;20105;-65
2022/10/15 03:21:36;;;;;;;9.07;5.43;;;;;;;;;;4989535;28;20654;-67
2022/10/15 03:24:02;;;;;;;11.37;5.07;;;;;;;;;;4992106;28;20030;-66
2022/10/15 03:26:27;;;;;;;9.55;4.88;;;;;;;;;;4973425;28;20303;-67
2022/10/15 03:28:52;;;;;;;15.15;6.20;;;;;;;;;;4979802;28;20055;-66
2022/10/15 03:31:17;;;;;;;16.43;6.13;;;;;;;;;;4990904;28;20104;-66
2022/10/15 03:33:43;;;;;;;8.90;4.90;;;;;;;;;;4988878;28;20291;-66
2022/10/15 03:36:08;;;;;;;9.55;5.38;;;;;;;;;;4974158;28;20027;-65
2022/10/15 03:38:33;;;;;;;10.85;4.82;;;;;;;;;;4973477;28;20027;-66
2022/10/15 03:40:58;;;;;;;9.40;4.90;;;;;;;;;;4987719;28;20019;-66
2022/10/15 03:43:24;;;;;;;14.57;4.50;;;;;;;;;;4964221;28;20023;-66
2022/10/15 03:45:49;;;;;;;10.13;4.30;;;;;;;;;;4973068;28;20033;-65
2022/10/15 03:48:15;;;;;;;8.30;4.20;;;;;;;;;;4975603;28;20029;-66
2022/10/15 03:50:40;;;;;;;10.67;4.33;;;;;;;;;;4976214;28;20085;-66
2022/10/15 03:53:05;;;;;;;7.65;4.00;;;;;;;;;;4985548;28;20270;-66
2022/10/15 03:55:30;;;;;;;10.48;4.75;;;;;;;;;;4987274;28;20015;-67
2022/10/15 03:57:56;;;;;;;8.55;4.07;;;;;;;;;;4974028;28;20409;-66
2022/10/15 04:00:21;;;;;;;9.00;4.68;;;;;;;;;;4974559;28;20030;-66
2022/10/15 04:02:46;;;;;;;10.02;4.70;;;;;;;;;;4979448;28;20034;-65
2022/10/15 04:05:11;;;;;;;9.63;4.17;;;;;;;;;;4973070;28;20030;-67
2022/10/15 04:07:36;;;;;;;7.20;3.80;;;;;;;;;;4991798;28;20327;-66
2022/10/15 04:10:02;;;;;;;8.32;4.40;;;;;;;;;;4978121;28;20256;-66
2022/10/15 04:12:27;;;;;;;12.65;4.55;;;;;;;;;;4974095;28;20046;-66
2022/10/15 04:14:52;;;;;;;10.65;4.80;;;;;;;;;;4973661;28;20046;-65
2022/10/15 04:17:18;;;;;;;8.23;4.07;;;;;;;;;;4977167;28;20019;-65
2022/10/15 04:19:43;;;;;;;10.25;4.57;;;;;;;;;;4985393;28;20889;-66
2022/10/15 04:22:08;;;;;;;9.50;4.40;;;;;;;;;;4976685;28;20053;-65
2022/10/15 04:24:33;;;;;;;7.57;3.80;;;;;;;;;;4977226;28;20252;-66
2022/10/15 04:26:58;;;;;;;9.05;3.80;;;;;;;;;;4987922;28;20256;-65
2022/10/15 04:29:24;;;;;;;8.63;4.33;;;;;;;;;;4981080;28;20666;-67
2022/10/15 04:31:49;;;;;;;8.75;3.90;;;;;;;;;;4970587;28;20252;-66
2022/10/15 04:34:14;;;;;;;9.38;4.60;;;;;;;;;;4985835;28;20684;-66
2022/10/15 04:36:39;;;;;;;11.38;4.15;;;;;;;;;;4976759;28;20041;-65
2022/10/15 04:39:05;;;;;;;10.75;4.68;;;;;;;;;;4976730;28;20023;-65
2022/10/15 04:41:30;;;;;;;9.57;4.53;;;;;;;;;;4987753;28;20025;-65
2022/10/15 04:43:56;;;;;;;8.07;4.40;;;;;;;;;;4968273;28;20097;-66
2022/10/15 04:46:21;;;;;;;8.30;4.05;;;;;;;;;;4976513;28;20027;-66
2022/10/15 04:48:47;;;;;;;8.57;4.07;;;;;;;;;;4965538;28;20026;-64
2022/10/15 04:51:14;;;;;;;9.55;4.18;;;;;;;;;;4970912;28;20492;-65
2022/10/15 04:53:39;;;;;;;7.65;4.03;;;;;;;;;;4959849;28;20097;-66
2022/10/15 04:56:11;;;;;;;8.55;4.53;;;;;;;;;;4983127;28;20022;-64
2022/10/15 04:58:36;;;;;;;11.80;4.40;;;;;;;;;;4989904;28;20023;-66
2022/10/15 05:01:03;;;;;;;10.82;4.47;;;;;;;;;;4986228;28;20388;-63
2022/10/15 05:03:29;;;;;;;9.45;5.25;;;;;;;;;;4981183;28;20381;-65
2022/10/15 05:05:59;;;;;;;10.27;4.65;;;;;;;;;;4983536;28;20037;-67
2022/10/15 05:08:24;;;;;;;8.32;4.10;;;;;;;;;;4999433;28;20094;-65
2022/10/15 05:10:49;;;;;;;9.37;4.10;;;;;;;;;;4987805;28;20045;-65
2022/10/15 05:13:15;;;;;;;11.52;4.55;;;;;;;;;;4989567;28;20261;-67
2022/10/15 05:15:40;;;;;;;11.60;4.65;;;;;;;;;;4986280;28;20022;-66
2022/10/15 05:18:05;;;;;;;7.15;3.83;;;;;;;;;;4980931;28;20034;-67
2022/10/15 05:20:31;;;;;;;10.00;3.97;;;;;;;;;;4983586;28;20046;-68
2022/10/15 05:22:56;;;;;;;10.10;4.43;;;;;;;;;;4992234;28;20821;-68
2022/10/15 05:25:21;;;;;;;9.17;3.80;;;;;;;;;;4994793;28;20463;-67
2022/10/15 05:27:46;;;;;;;8.50;4.10;;;;;;;;;;4963603;28;20275;-66
2022/10/15 05:30:12;;;;;;;9.02;3.53;;;;;;;;;;4985243;28;20361;-67
2022/10/15 05:32:37;;;;;;;6.45;3.55;;;;;;;;;;4992316;28;20030;-67
2022/10/15 05:35:02;;;;;;;9.02;4.18;;;;;;;;;;4994956;28;20120;-66
2022/10/15 05:37:27;;;;;;;9.38;3.72;;;;;;;;;;4981179;28;20018;-66
2022/10/15 05:39:53;;;;;;;8.23;3.90;;;;;;;;;;4990652;28;20503;-66
2022/10/15 05:42:18;;;;;;;10.57;3.80;;;;;;;;;;4979236;28;20027;-68
2022/10/15 05:44:43;;;;;;;9.50;3.65;;;;;;;;;;4984315;28;20038;-68
2022/10/15 05:47:10;;;;;;;11.43;4.70;;;;;;;;;;4992549;28;20022;-66
2022/10/15 05:49:36;;;;;;;10.68;3.97;;;;;;;;;;4977202;28;20026;-67
2022/10/15 05:52:01;;;;;;;10.80;4.28;;;;;;;;;;4980972;28;20138;-66
2022/10/15 05:54:26;;;;;;;7.18;3.80;;;;;;;;;;4975143;28;20516;-68
2022/10/15 05:56:51;;;;;;;8.50;4.27;;;;;;;;;;4986925;28;20030;-66
2022/10/15 05:59:16;;;;;;;8.63;3.90;;;;;;;;;;4981599;28;20331;-67
2022/10/15 06:01:41;;;;;;;8.53;4.23;;;;;;;;;;4987178;28;20764;-65
2022/10/15 06:04:07;;;;;;;9.97;4.33;;;;;;;;;;4981982;28;20276;-66
2022/10/15 06:06:32;;;;;;;9.00;4.20;;;;;;;;;;4977538;28;20284;-67
2022/10/15 06:09:00;;;;;;;9.60;4.05;;;;;;;;;;4982257;28;20046;-66
2022/10/15 06:11:25;;;;;;;15.70;4.95;;;;;;;;;;4994389;28;20059;-67
2022/10/15 06:13:50;;;;;;;6.75;3.70;;;;;;;;;;4996136;28;20026;-66
2022/10/15 06:16:17;;;;;;;6.93;3.38;;;;;;;;;;4978622;28;20037;-68
2022/10/15 06:18:42;;;;;;;7.60;3.25;;;;;;;;;;4980232;28;20014;-66
2022/10/15 06:21:08;;;;;;;5.50;3.08;;;;;;;;;;4989750;28;20494;-66
2022/10/15 06:23:37;;;;;;;6.82;3.53;;;;;;;;;;4986400;28;20027;-66
2022/10/15 06:26:03;;;;;;;7.03;3.50;;;;;;;;;;4970661;28;20023;-67
2022/10/15 06:28:28;;;;;;;9.23;4.05;;;;;;;;;;4991798;28;20022;-65
2022/10/15 06:30:56;;;;;;;8.95;3.25;;;;;;;;;;4977735;28;20030;-65
2022/10/15 06:33:21;;;;;;;11.98;3.40;;;;;;;;;;4981316;28;20356;-66
2022/10/15 06:35:47;;;;;;;7.68;3.65;;;;;;;;;;4993076;28;20027;-67
2022/10/15 06:38:12;;;;;;;8.98;3.95;;;;;;;;;;4982042;28;20050;-66
2022/10/15 06:40:38;;;;;;;7.82;3.58;;;;;;;;;;4985129;28;20081;-65
2022/10/15 06:43:04;;;;;;;9.55;5.07;;;;;;;;;;4965685;28;20019;-66
2022/10/15 06:45:31;;;;;;;7.97;3.83;;;;;;;;;;4980424;28;20504;-67
2022/10/15 06:47:56;;;;;;;13.18;3.80;;;;;;;;;;4973107;28;20538;-66
2022/10/15 06:50:21;;;;;;;11.75;3.75;;;;;;;;;;4991497;28;20026;-66
2022/10/15 06:52:47;;;;;;;10.67;3.80;;;;;;;;;;4986124;28;20377;-65
2022/10/15 06:55:12;;;;;;;6.80;3.30;;;;;;;;;;4994304;28;20378;-67
2022/10/15 06:57:37;;;;;;;15.02;3.35;;;;;;;;;;4981196;28;20030;-66
2022/10/15 07:00:03;;;;;;;8.38;3.03;;;;;;;;;;4985330;28;20026;-66
2022/10/15 07:02:28;;;;;;;8.20;3.00;;;;;;;;;;4967880;28;20050;-66
2022/10/15 07:04:53;;;;;;;9.50;3.13;;;;;;;;;;4992410;28;20122;-67
2022/10/15 07:07:19;;;;;;;5.80;3.10;;;;;;;;;;4991738;28;20056;-66
2022/10/15 07:09:45;;;;;;;17.93;3.83;;;;;;;;;;4991060;28;20034;-67
2022/10/15 07:12:10;;;;;;;7.50;3.10;;;;;;;;;;4984544;28;20272;-65
2022/10/15 07:14:36;;;;;;;9.85;3.10;;;;;;;;;;4975657;28;20034;-66
2022/10/15 07:17:01;;;;;;;8.30;2.72;;;;;;;;;;4991968;28;20097;-67
2022/10/15 07:19:27;;;;;;;6.53;2.93;;;;;;;;;;4993733;28;20022;-68
2022/10/15 07:21:52;;;;;;;6.13;3.17;;;;;;;;;;4972638;28;20259;-66
2022/10/15 07:24:17;;;;;;;8.82;3.25;;;;;;;;;;4991860;28;20554;-67
2022/10/15 07:26:43;;;;;;;8.50;3.10;;;;;;;;;;4997476;28;20105;-66
2022/10/15 07:29:08;;;;;;;10.10;2.90;;;;;;;;;;4991464;28;20681;-68
2022/10/15 07:31:33;;;;;;;8.23;2.80;;;;;;;;;;4992643;28;20029;-66
2022/10/15 07:33:59;;;;;;;5.63;2.42;;;;;;;;;;4975255;28;20018;-67
2022/10/15 07:36:24;;;;;;;6.57;2.57;;;;;;;;;;4991016;28;20042;-67
2022/10/15 07:38:50;;;;;;;4.82;2.40;;;;;;;;;;4991683;28;20279;-67
2022/10/15 07:41:15;;;;;;;13.73;3.22;;;;;;;;;;4990872;28;20053;-67
2022/10/15 07:43:40;;;;;;;4.75;2.58;;;;;;;;;;4971289;28;20835;-67
2022/10/15 07:46:06;;;;;;;5.32;2.67;;;;;;;;;;4973822;28;20444;-68
2022/10/15 07:48:31;;;;;;;4.53;2.20;;;;;;;;;;4995843;28;20074;-67
2022/10/15 07:50:57;;;;;;;6.35;2.33;;;;;;;;;;4991954;28;20723;-67
2022/10/15 07:53:23;;;;;;;6.47;3.08;;;;;;;;;;4997071;28;20025;-67
2022/10/15 07:55:48;;;;;;;6.45;2.85;;;;;;;;;;4995851;28;20037;-69
2022/10/15 07:58:13;;;;;;;6.63;2.60;;;;;;;;;;4997664;28;20058;-65
2022/10/15 08:00:39;;;;;;;6.80;2.30;;;;;;;;;;4990865;28;20023;-69
2022/10/15 08:03:04;;;;;;;8.10;3.10;;;;;;;;;;4991156;28;20150;-67
2022/10/15 08:05:29;;;;;;;10.80;2.92;;;;;;;;;;4999193;28;20263;-66
2022/10/15 08:07:54;;;;;;;4.78;2.67;;;;;;;;;;4998234;28;20429;-67
2022/10/15 08:10:20;;;;;;;4.93;2.63;;;;;;;;;;4994628;28;20034;-69
2022/10/15 08:12:45;;;;;;;7.22;2.80;;;;;;;;;;4989343;28;20034;-68
2022/10/15 08:15:10;;;;;;;6.10;2.92;;;;;;;;;;4995334;28;20022;-67
2022/10/15 08:17:35;;;;;;;7.07;2.95;;;;;;;;;;4989548;28;20139;-67
2022/10/15 08:20:01;;;;;;;8.07;2.92;;;;;;;;;;4984600;28;20121;-67
2022/10/15 08:22:26;;;;;;;7.23;2.67;;;;;;;;;;4977033;28;20379;-69
2022/10/15 08:24:51;;;;;;;6.28;2.65;;;;;;;;;;4992501;28;20351;-70
2022/10/15 08:27:16;;;;;;;8.95;3.03;;;;;;;;;;4973265;28;20038;-67
2022/10/15 08:29:42;;;;;;;8.60;3.13;;;;;;;;;;4986573;28;20037;-68
2022/10/15 08:32:07;;;;;;;9.50;2.50;;;;;;;;;;4991107;28;20038;-67
2022/10/15 08:34:32;;;;;;;5.53;2.30;;;;;;;;;;4992682;28;20283;-67
2022/10/15 08:36:57;;;;;;;7.22;2.85;;;;;;;;;;4990121;28;20385;-69
2022/10/15 08:39:22;;;;;;;6.03;2.60;;;;;;;;;;4988846;28;20057;-71
2022/10/15 08:41:51;;;;;;;7.47;2.60;;;;;;;;;;4972957;28;20264;-70
2022/10/15 08:44:27;;;;;;;5.07;2.22;;;;;;;;;;4994440;28;21338;-69
2022/10/15 08:46:55;;;;;;;5.50;2.78;;;;;;;;;;4994265;28;20030;-70
2022/10/15 08:49:43;;;;;;;5.05;2.65;;;;;;;;;;4989915;28;20030;-70
2022/10/15 08:52:15;;;;;;;5.20;2.25;;;;;;;;;;4955716;28;20049;-66
2022/10/15 08:54:40;;;;;;;14.70;2.65;;;;;;;;;;4989995;28;20477;-68
2022/10/15 08:57:25;;;;;;;6.82;2.55;;;;;;;;;;4995794;28;20102;-70
2022/10/15 08:59:59;;;;;;;4.72;2.03;;;;;;;;;;4985331;28;20046;-65
2022/10/15 09:02:29;;;;;;;5.90;2.38;;;;;;;;;;4994816;28;20018;-65
2022/10/15 09:05:13;;;;;;;4.50;2.15;;;;;;;;;;4995406;28;20084;-72
2022/10/15 09:07:42;;;;;;;3.55;1.70;;;;;;;;;;4985894;28;20053;-70
2022/10/15 09:10:23;;;;;;;6.20;1.92;;;;;;;;;;4973036;28;20552;-69
2022/10/15 09:12:57;;;;;;;4.65;2.05;;;;;;;;;;4989493;28;20117;-67
2022/10/15 09:15:23;;;;;;;4.00;1.95;;;;;;;;;;4994341;28;20034;-69
2022/10/15 09:17:50;;;;;;;7.55;1.90;;;;;;;;;;4992809;28;20053;-71
2022/10/15 09:20:21;;;;;;;6.10;2.08;;;;;;;;;;4991308;28;20042;-68
2022/10/15 09:22:48;;;;;;;6.75;1.77;;;;;;;;;;4991216;28;20069;-67
2022/10/15 09:25:15;;;;;;;2.70;1.38;;;;;;;;;;4974583;28;20037;-69
2022/10/15 09:27:41;;;;;;;3.63;1.52;;;;;;;;;;4990613;28;20065;-69
2022/10/15 09:30:32;;;;;;;4.35;1.80;;;;;;;;;;4989064;28;20014;-70
2022/10/15 09:33:16;;;;;;;3.55;1.60;;;;;;;;;;4994692;28;20026;-72
2022/10/15 09:35:41;;;;;;;3.20;1.45;;;;;;;;;;4989492;28;20104;-72
2022/10/15 09:38:08;;;;;;;4.73;1.70;;;;;;;;;;4995042;28;20140;-71
2022/10/15 09:40:38;;;;;;;4.63;1.73;;;;;;;;;;5000971;28;20278;-70
2022/10/15 09:43:04;;;;;;;12.70;2.75;;;;;;;;;;4991993;28;20396;-71
2022/10/15 09:45:30;;;;;;;5.65;1.40;;;;;;;;;;4991463;28;20021;-70
2022/10/15 09:47:58;;;;;;;3.00;1.50;;;;;;;;;;4994350;28;20030;-71
2022/10/15 09:50:24;;;;;;;;;;;;;;;;;;4998033;28;20042;-70
2022/10/15 09:53:02;;;;;;;1.90;1.10;;;;;;;;;;4989145;28;20649;-70
2022/10/15 09:55:46;;;;;;;3.13;1.40;;;;;;;;;;4987483;28;20038;-70
2022/10/15 09:58:15;;;;;;;2.53;1.13;;;;;;;;;;4972890;28;20089;-70
2022/10/15 10:00:58;;;;;;;2.38;1.27;;;;;;;;;;4976650;28;20064;-75
2022/10/15 10:03:24;;;;;;;1.08;0.60;;;;;;;;;;4990911;28;20018;-72
2022/10/15 10:05:57;;;;;;;1.02;0.68;;;;;;;;;;4991675;28;20026;-71
2022/10/15 10:08:23;;;;;;;1.10;0.73;;;;;;;;;;4992611;28;20856;-71
2022/10/15 10:10:53;;;;;;;1.30;0.60;;;;;;;;;;4993315;28;20022;-72
2022/10/15 10:13:26;;;;;;;2.45;0.88;;;;;;;;;;4995380;28;20028;-69
2022/10/15 10:15:53;;;;;;;2.75;1.23;;;;;;;;;;4995268;28;20042;-72
2022/10/15 10:18:23;;;;;;;0.98;0.70;;;;;;;;;;4992102;28;20471;-73
2022/10/15 10:20:53;;;;;;;1.25;0.63;;;;;;;;;;4990130;28;20031;-73
2022/10/15 10:23:22;;;;;;;1.45;0.77;;;;;;;;;;4987196;28;20026;-72
2022/10/15 10:25:47;;;;;;;2.05;0.77;;;;;;;;;;4985901;28;20095;-71
2022/10/15 10:28:14;;;;;;;9.55;1.00;;;;;;;;;;4968857;28;20030;-71
2022/10/15 10:30:54;;;;;;;4.85;1.38;;;;;;;;;;4986013;28;20030;-73
2022/10/15 10:33:28;;;;;;;2.85;1.15;;;;;;;;;;4985949;28;20021;-72
2022/10/15 10:35:53;;;;;;;2.10;1.15;;;;;;;;;;4988393;28;20022;-73
2022/10/15 10:38:23;;;;;;;3.40;1.25;;;;;;;;;;4991202;28;20018;-72
2022/10/15 10:40:55;;;;;;;2.08;0.90;;;;;;;;;;4994867;28;20022;-71
2022/10/15 10:43:23;;;;;;;2.78;1.20;;;;;;;;;;4988673;28;20106;-70
2022/10/15 10:46:05;;;;;;;2.05;1.00;;;;;;;;;;4992408;28;20388;-70
2022/10/15 10:48:43;;;;;;;2.60;0.90;;;;;;;;;;4995069;28;20014;-69
2022/10/15 10:51:09;;;;;;;;;;;;;;;;;;4974118;28;20022;-72
2022/10/15 10:53:38;;;;;;;2.93;1.20;;;;;;;;;;4993902;28;19924;-72
2022/10/15 10:56:05;;;;;;;7.95;2.28;;;;;;;;;;4990509;28;20243;-72
2022/10/15 10:58:32;;;;;;;3.47;1.10;;;;;;;;;;4989624;28;20018;-74
2022/10/15 11:00:57;;;;;;;2.15;0.93;;;;;;;;;;4992878;28;20041;-71
2022/10/15 11:03:39;;;;;;;1.75;0.80;;;;;;;;;;4988300;28;20025;-71
2022/10/15 11:06:08;;;;;;;1.23;0.90;;;;;;;;;;4992681;28;20053;-72
2022/10/15 11:08:41;;;;;;;1.58;0.77;;;;;;;;;;4993968;28;20022;-71
2022/10/15 11:11:16;;;;;;;1.33;0.80;;;;;;;;;;4987944;28;20022;-71
2022/10/15 11:13:47;;;;;;;3.03;0.80;;;;;;;;;;4990620;28;20022;-70
2022/10/15 11:16:19;;;;;;;1.90;0.90;;;;;;;;;;4987382;28;20019;-72
2022/10/15 11:19:14;;;;;;;1.88;1.00;;;;;;;;;;4974848;28;20493;-73
2022/10/15 11:21:45;;;;;;;1.67;0.80;;;;;;;;;;4905056;28;20572;-70
2022/10/15 11:24:13;;;;;;;1.95;0.80;;;;;;;;;;4991363;28;21351;-69
2022/10/15 11:26:50;;;;;;;0.98;0.57;;;;;;;;;;4996112;28;20030;-70
2022/10/15 11:29:26;;;;;;;4.90;0.80;;;;;;;;;;4992821;28;20030;-72
2022/10/15 11:31:51;;;;;;;6.43;0.82;;;;;;;;;;4990670;28;20022;-71
2022/10/15 11:34:22;;;;;;;1.40;0.70;;;;;;;;;;4989090;28;20092;-71
2022/10/15 11:37:01;;;;;;;3.30;0.73;;;;;;;;;;4990865;28;20711;-70
2022/10/15 11:39:27;;;;;;;1.67;0.80;;;;;;;;;;4989612;28;20551;-70
2022/10/15 11:41:52;;;;;;;0.83;0.50;;;;;;;;;;4994426;28;20019;-73
2022/10/15 11:44:33;;;;;;;12.73;1.50;;;;;;;;;;4970727;28;20363;-73
2022/10/15 11:46:59;;;;;;;1.38;0.90;;;;;;;;;;4961503;28;20272;-75
2022/10/15 11:49:41;;;;;;;1.42;0.75;;;;;;;;;;4981179;28;20539;-73
2022/10/15 11:52:06;;;;;;;2.05;0.75;;;;;;;;;;4978899;28;20021;-71
2022/10/15 11:54:37;;;;;;;1.50;0.85;;;;;;;;;;4958334;28;20015;-70
2022/10/15 11:57:03;;;;;;;1.45;0.90;;;;;;;;;;4979840;28;20018;-69
2022/10/15 11:59:29;;;;;;;1.10;0.70;;;;;;;;;;4986307;28;20064;-71
2022/10/15 12:01:58;;;;;;;0.93;0.70;;;;;;;;;;4979082;28;20024;-71
2022/10/15 12:04:31;;;;;;;1.58;0.88;;;;;;;;;;4977763;28;20271;-75
2022/10/15 12:07:02;;;;;;;1.55;0.80;;;;;;;;;;4988736;28;20022;-72
2022/10/15 12:09:30;;;;;;;2.00;0.90;;;;;;;;;;4969664;28;20011;-69
2022/10/15 12:12:17;;;;;;;0.73;0.52;;;;;;;;;;4973231;28;20023;-72
2022/10/15 12:14:43;;;;;;;2.63;0.70;;;;;;;;;;4976662;28;20018;-73
2022/10/15 12:17:34;;;;;;;4.18;0.55;;;;;;;;;;4990297;28;20014;-73
2022/10/15 12:20:05;;;;;;;0.95;0.52;;;;;;;;;;4965325;28;20184;-72
2022/10/15 12:22:37;;;;;;;1.02;0.50;;;;;;;;;;4980063;28;20072;-72
2022/10/15 12:25:03;;;;;;;2.13;0.60;;;;;;;;;;4977045;28;20022;-72
2022/10/15 12:27:33;;;;;;;1.98;0.85;;;;;;;;;;4987823;28;20438;-73
2022/10/15 12:29:58;;;;;;;5.10;0.63;;;;;;;;;;4973816;28;20026;-75
2022/10/15 12:32:24;;;;;;;0.93;0.57;;;;;;;;;;4991315;28;20025;-73
2022/10/15 12:34:54;;;;;;;1.08;0.60;;;;;;;;;;4985509;28;20097;-72
2022/10/15 12:37:21;;;;;;;0.70;0.50;;;;;;;;;;4986174;28;20547;-72
2022/10/15 12:39:53;;;;;;;2.15;0.80;;;;;;;;;;4986344;28;20384;-72
2022/10/15 12:42:29;;;;;;;0.80;0.52;;;;;;;;;;4974370;28;20021;-72
2022/10/15 12:44:56;;;;;;;4.95;0.70;;;;;;;;;;4992134;28;20038;-70
2022/10/15 12:47:39;;;;;;;1.10;0.65;;;;;;;;;;4994791;28;20021;-71
2022/10/15 12:50:05;;;;;;;0.52;0.50;;;;;;;;;;4996488;28;20080;-70
2022/10/15 12:52:56;;;;;;;2.50;0.70;;;;;;;;;;4992058;28;20030;-70
2022/10/15 12:55:25;;;;;;;1.67;0.75;;;;;;;;;;4985909;28;20030;-70
2022/10/15 12:57:50;;;;;;;0.40;0.40;;;;;;;;;;4992618;28;20019;-70
2022/10/15 13:00:25;;;;;;;0.70;0.52;;;;;;;;;;4977057;28;20133;-70
2022/10/15 13:02:54;;;;;;;4.57;1.10;;;;;;;;;;4988592;28;20125;-69
2022/10/15 13:05:30;;;;;;;0.55;0.50;;;;;;;;;;4999170;28;20021;-69
2022/10/15 13:07:56;;;;;;;2.55;0.80;;;;;;;;;;4988730;28;20042;-71
2022/10/15 13:10:23;;;;;;;0.73;0.60;;;;;;;;;;4988338;28;20582;-73
2022/10/15 13:12:57;;;;;;;3.03;1.17;;;;;;;;;;4993730;28;20100;-71
2022/10/15 13:15:24;;;;;;;1.00;0.60;;;;;;;;;;4996978;28;20097;-71
2022/10/15 13:17:50;;;;;;;0.75;0.50;;;;;;;;;;4979962;28;20075;-72
2022/10/15 13:20:35;;;;;;;1.40;0.70;;;;;;;;;;4996191;28;20030;-72
2022/10/15 13:23:17;;;;;;;6.88;0.70;;;;;;;;;;4988260;28;20551;-71
2022/10/15 13:25:43;;;;;;;0.77;0.60;;;;;;;;;;4989960;28;20049;-70
2022/10/15 13:28:26;;;;;;;1.52;0.80;;;;;;;;;;4993377;28;20019;-71
2022/10/15 13:30:52;;;;;;;1.10;0.60;;;;;;;;;;4987105;28;20026;-70
2022/10/15 13:33:17;;;;;;;1.20;0.70;;;;;;;;;;4972285;28;20381;-72
2022/10/15 13:35:43;;;;;;;0.73;0.60;;;;;;;;;;4977569;28;20038;-70
2022/10/15 13:38:17;;;;;;;1.95;0.60;;;;;;;;;;4991922;28;20022;-72
2022/10/15 13:40:46;;;;;;;0.80;0.60;;;;;;;;;;4980521;28;20011;-73
2022/10/15 13:43:13;;;;;;;1.13;0.57;;;;;;;;;;4978083;28;20026;-72
2022/10/15 13:45:44;;;;;;;1.13;0.70;;;;;;;;;;4977527;28;20690;-73
2022/10/15 13:48:10;;;;;;;0.63;0.50;;;;;;;;;;4978404;28;20079;-70
2022/10/15 13:50:38;;;;;;;1.90;0.70;;;;;;;;;;4987066;28;20437;-71
2022/10/15 13:53:04;;;;;;;0.55;0.50;;;;;;;;;;4985040;28;20047;-69
2022/10/15 13:55:35;;;;;;;1.30;0.63;;;;;;;;;;4986991;28;20022;-69
2022/10/15 13:58:05;;;;;;;0.80;0.40;;;;;;;;;;4992091;28;20268;-71
2022/10/15 14:00:32;;;;;;;1.13;0.50;;;;;;;;;;4980918;28;20094;-71
2022/10/15 14:03:06;;;;;;;1.02;0.65;;;;;;;;;;4983784;28;20014;-72
2022/10/15 14:05:32;;;;;;;0.90;0.73;;;;;;;;;;4992365;28;20420;-73
2022/10/15 14:07:57;;;;;;;0.50;0.50;;;;;;;;;;4972622;28;20029;-71
2022/10/15 14:10:22;;;;;;;0.98;0.57;;;;;;;;;;4994104;28;20029;-72
2022/10/15 14:12:50;;;;;;;1.80;0.70;;;;;;;;;;4974159;28;20022;-70
2022/10/15 14:15:34;;;;;;;0.47;0.40;;;;;;;;;;4980218;28;20141;-70
2022/10/15 14:18:00;;;;;;;1.17;0.50;;;;;;;;;;4985705;28;20140;-71
2022/10/15 14:20:25;;;;;;;1.50;0.68;;;;;;;;;;4975839;28;20078;-72
2022/10/15 14:22:50;;;;;;;1.40;0.50;;;;;;;;;;5001526;28;20014;-71
2022/10/15 14:25:19;;;;;;;0.73;0.60;;;;;;;;;;4994746;28;20019;-74
2022/10/15 14:27:44;;;;;;;;;;;;;;;;;;4981383;28;20022;-72
2022/10/15 14:30:13;;;;;;;3.40;0.85;;;;;;;;;;4988166;28;19929;-71
2022/10/15 14:32:38;;;;;;;;;;;;;;;;;;4984873;28;20023;-72
2022/10/15 14:35:04;;;;;;;2.17;0.80;;;;;;;;;;4958784;28;19913;-71
2022/10/15 14:37:35;;;;;;;1.10;0.65;;;;;;;;;;4989231;28;20022;-71
2022/10/15 14:40:07;;;;;;;1.25;0.70;;;;;;;;;;4964807;28;20030;-71
2022/10/15 14:42:33;;;;;;;0.80;0.63;;;;;;;;;;4995779;28;20025;-70
2022/10/15 14:45:09;;;;;;;1.67;0.90;;;;;;;;;;4982144;28;20103;-72